Potomac, Montana
Current Conditions -  °F | °C
As of 2:53 AM on Saturday 22 Nov 2014 (Local Time) from KMSO Reporting Station
Light Rain Light Rain  
Wind Chill:   Ceiling: 3800
Heat Index:   Visibility: 10mi
Dew Point:   Wind: 7mph
Humidity: 83%   Direction: 100°E
Pressure: 29.47"   Gusts: NA
Location:  46.8727°N, 113.587°W
Report Text: KMSO 220953Z AUTO 10006KT 10SM -RA OVC038 04/02 A2947 RMK AO2 RAE11B34 SLP994 P0001 T00440017
Loading
Personal Weather Stations






























Interactive Weather Map New forecast layout! Learn more

10-Day Weather Forecast

Advertisements
Track Severe Weather on mobile